logo
Search for airport 
image banner adimage banner adimage banner ad
image banner ad

FABRTS - Bartsrus

Located in , South Africa

ICAO - , IATA -

Data provided by Airmate  

General information

Coordinates: S27°57'30" E25°49'57"
Elevation is 4133 feet MSL.
 
View others Airports in Free State

Operational data

Special qualification required
Current time UTC:
Current local time:
Weather at : - ( 0 km )
METAR: EHWO 180725Z AUTO 34004KT 290V060 9999 NCD 08/04 Q1020 BLU NOSIG
View NOTAMs / SUP AIP / TFR affecting this airport [VIEW]
Communications frequencies: [VIEW]

Runways:

RWY identifierQFULength (ft)Width (ft)SurfaceLDA (ft)
01290°131266SAND
19110°131266SAND

Airport contact information

Address: South Africa

Satellite view of FABRTS